Time;durP1;ratioP1;P1;durP2;ratioP2;P2;SDS_P1;SDS_P2;PMS_P1;PMS_P2;Temp;Humidity;BMP_temperature;BMP_pressure;BME280_temperature;BME280_humidity;BME280_pressure;Samples;Min_cycle;Max_cycle;Signal;HPM_P1;HPM_P2
2022/04/17 05:00:39;;;;;;;5.37;4.87;;;7.00;97.20;;;;;;1688149;29;20185;-74
2022/04/17 05:01:30;;;;;;;5.20;4.80;;;7.00;97.20;;;;;;1688126;29;20230;-74
2022/04/17 05:02:21;;;;;;;4.83;4.43;;;7.10;97.20;;;;;;1688140;29;20200;-74
2022/04/17 05:03:12;;;;;;;4.80;4.38;;;7.10;97.20;;;;;;1687972;29;20476;-73
2022/04/17 05:04:04;;;;;;;5.20;4.80;;;7.10;97.20;;;;;;1688214;29;20215;-73
2022/04/17 05:04:55;;;;;;;5.15;4.75;;;7.10;97.20;;;;;;1688072;29;20236;-74
2022/04/17 05:05:46;;;;;;;4.80;4.23;;;7.10;97.20;;;;;;1688100;29;20212;-73
2022/04/17 05:06:37;;;;;;;5.22;4.82;;;7.20;97.20;;;;;;1687813;29;20212;-74
2022/04/17 05:07:29;;;;;;;4.90;4.50;;;7.20;97.20;;;;;;1688067;29;20200;-73
2022/04/17 05:08:19;;;;;;;5.05;4.55;;;7.20;97.20;;;;;;1687869;29;20208;-73
2022/04/17 05:09:11;;;;;;;5.93;4.90;;;7.20;97.20;;;;;;1688123;29;20209;-74
2022/04/17 05:10:02;;;;;;;4.40;4.00;;;7.20;97.20;;;;;;1688110;29;20200;-74
2022/04/17 05:10:54;;;;;;;4.93;4.43;;;7.20;97.20;;;;;;1688024;29;20201;-73
2022/04/17 05:11:46;;;;;;;4.22;3.92;;;7.20;97.20;;;;;;1688099;29;20456;-73
2022/04/17 05:12:38;;;;;;;4.90;4.50;;;7.30;97.20;;;;;;1687869;29;20204;-74
2022/04/17 05:13:28;;;;;;;5.22;4.82;;;7.20;97.20;;;;;;1688148;29;20236;-74
2022/04/17 05:14:20;;;;;;;5.60;5.17;;;7.30;97.20;;;;;;1688153;29;20207;-73
2022/04/17 05:15:11;;;;;;;4.50;4.10;;;7.30;97.20;;;;;;1687761;29;20232;-74
2022/04/17 05:16:05;;;;;;;4.93;4.20;;;7.30;97.20;;;;;;1688017;29;20208;-73
2022/04/17 05:16:55;;;;;;;4.40;4.10;;;7.30;97.20;;;;;;1688096;29;20223;-74
2022/04/17 05:17:46;;;;;;;4.90;4.40;;;7.30;97.20;;;;;;1688077;29;20209;-73
2022/04/17 05:18:38;;;;;;;4.97;4.57;;;7.30;97.20;;;;;;1687777;29;20231;-74
2022/04/17 05:19:28;;;;;;;4.60;4.20;;;7.30;97.20;;;;;;1687928;29;20623;-74
2022/04/17 05:20:20;;;;;;;4.90;4.40;;;7.30;97.20;;;;;;1688035;29;20338;-73
2022/04/17 05:21:12;;;;;;;4.50;4.00;;;7.40;97.20;;;;;;1687925;29;20264;-73
2022/04/17 05:22:06;;;;;;;4.38;4.07;;;7.40;97.20;;;;;;1688056;29;20212;-73
2022/04/17 05:23:03;;;;;;;4.72;4.07;;;7.40;97.20;;;;;;1687915;29;20650;-73
2022/04/17 05:23:54;;;;;;;4.32;3.92;;;7.40;97.20;;;;;;1688022;29;20276;-74
2022/04/17 05:24:46;;;;;;;4.93;4.20;;;7.40;97.20;;;;;;1688081;29;20269;-73
2022/04/17 05:25:37;;;;;;;4.10;3.70;;;7.40;97.20;;;;;;1687261;29;20224;-73
2022/04/17 05:26:29;;;;;;;4.40;4.00;;;7.40;97.20;;;;;;1687963;29;20236;-73
2022/04/17 05:27:22;;;;;;;4.50;4.18;;;7.40;97.20;;;;;;1688012;29;20468;-73
2022/04/17 05:28:14;;;;;;;6.65;4.40;;;7.40;97.20;;;;;;1687774;29;20460;-73
2022/04/17 05:29:05;;;;;;;4.63;4.22;;;7.40;97.20;;;;;;1687985;29;20208;-74
2022/04/17 05:29:57;;;;;;;4.27;3.87;;;7.40;97.20;;;;;;1688027;29;20205;-74
2022/04/17 05:30:47;;;;;;;4.68;3.90;;;7.50;97.20;;;;;;1688065;29;20243;-74
2022/04/17 05:31:40;;;;;;;4.20;3.90;;;7.50;97.20;;;;;;1688110;29;20212;-73
2022/04/17 05:32:31;;;;;;;5.15;4.05;;;7.50;97.20;;;;;;1687952;29;20241;-73
2022/04/17 05:33:24;;;;;;;4.30;3.73;;;7.50;97.20;;;;;;1688058;29;20552;-73
2022/04/17 05:34:15;;;;;;;4.82;4.32;;;7.50;97.20;;;;;;1687980;29;20600;-74
2022/04/17 05:35:07;;;;;;;4.10;3.70;;;7.60;97.20;;;;;;1687692;29;20252;-73
2022/04/17 05:35:58;;;;;;;5.20;3.95;;;7.60;97.20;;;;;;1687933;29;20236;-73
2022/04/17 05:36:50;;;;;;;4.10;3.50;;;7.60;97.20;;;;;;1688097;29;20214;-74
2022/04/17 05:37:40;;;;;;;4.50;4.10;;;7.60;97.20;;;;;;1687884;29;20694;-74
2022/04/17 05:38:32;;;;;;;4.60;4.20;;;7.70;97.20;;;;;;1687572;29;20570;-73
2022/04/17 05:39:23;;;;;;;4.68;4.15;;;7.70;97.20;;;;;;1687961;29;20240;-73
2022/04/17 05:40:14;;;;;;;5.03;4.10;;;7.70;97.20;;;;;;1687961;29;20200;-73
2022/04/17 05:41:09;;;;;;;5.10;4.28;;;7.70;97.20;;;;;;1687862;29;20700;-73
2022/04/17 05:42:02;;;;;;;5.15;3.58;;;7.70;97.20;;;;;;1687914;29;20207;-74
2022/04/17 05:42:52;;;;;;;4.25;3.95;;;7.80;97.20;;;;;;1687802;29;20322;-73
2022/04/17 05:43:44;;;;;;;4.63;3.43;;;7.80;97.20;;;;;;1688153;29;20204;-73
2022/04/17 05:44:35;;;;;;;4.13;3.83;;;7.80;97.20;;;;;;1687748;29;20794;-73
2022/04/17 05:45:28;;;;;;;5.10;4.60;;;7.90;97.20;;;;;;1687618;29;20268;-73
2022/04/17 05:46:19;;;;;;;4.20;3.70;;;7.90;97.20;;;;;;1687853;29;20228;-73
2022/04/17 05:47:13;;;;;;;5.65;3.53;;;7.90;97.20;;;;;;1687827;29;20200;-74
2022/04/17 05:48:05;;;;;;;3.95;3.55;;;7.90;97.20;;;;;;1687577;29;20680;-74
2022/04/17 05:48:57;;;;;;;4.68;4.18;;;7.90;97.20;;;;;;1687846;29;20268;-73
2022/04/17 05:49:48;;;;;;;4.13;3.83;;;8.00;97.20;;;;;;1687737;29;20252;-74
2022/04/17 05:50:41;;;;;;;4.03;3.67;;;8.00;97.20;;;;;;1687829;29;20236;-74
2022/04/17 05:51:32;;;;;;;4.82;3.95;;;8.00;97.20;;;;;;1687817;29;20661;-74
2022/04/17 05:52:24;;;;;;;3.83;3.50;;;8.00;97.20;;;;;;1687913;29;20550;-74
2022/04/17 05:53:17;;;;;;;3.95;3.65;;;8.00;97.20;;;;;;1687710;29;20228;-74
2022/04/17 05:54:08;;;;;;;4.45;4.03;;;8.00;97.20;;;;;;1687777;29;20256;-74
2022/04/17 05:54:59;;;;;;;5.82;4.10;;;8.00;97.20;;;;;;1687627;29;20246;-74
2022/04/17 05:55:51;;;;;;;4.37;3.97;;;8.10;97.20;;;;;;1687662;29;20204;-74
2022/04/17 05:56:42;;;;;;;4.45;3.70;;;8.10;97.20;;;;;;1687732;29;20243;-73
2022/04/17 05:57:33;;;;;;;3.70;3.40;;;8.10;97.20;;;;;;1687763;29;20216;-74
2022/04/17 05:58:24;;;;;;;3.97;3.67;;;8.10;97.20;;;;;;1687515;29;20208;-74
2022/04/17 05:59:16;;;;;;;3.53;3.23;;;8.10;97.20;;;;;;1687644;29;20204;-73
2022/04/17 06:00:08;;;;;;;4.85;3.78;;;8.20;97.20;;;;;;1687832;29;20235;-73
2022/04/17 06:01:02;;;;;;;4.03;3.70;;;8.20;97.20;;;;;;1687720;29;20288;-73
2022/04/17 06:01:52;;;;;;;4.50;3.75;;;8.20;97.20;;;;;;1687746;29;20363;-73
2022/04/17 06:02:46;;;;;;;4.10;3.80;;;8.20;97.20;;;;;;1687743;29;20204;-73
2022/04/17 06:03:37;;;;;;;4.03;3.72;;;8.20;97.20;;;;;;1687828;29;20517;-73
2022/04/17 06:04:29;;;;;;;4.07;3.70;;;8.20;97.20;;;;;;1688746;29;20204;-73
2022/04/17 06:05:20;;;;;;;3.90;3.60;;;8.30;97.20;;;;;;1687572;29;20263;-73
2022/04/17 06:06:12;;;;;;;3.75;3.13;;;8.30;97.20;;;;;;1687774;29;20619;-72
2022/04/17 06:07:03;;;;;;;3.67;3.38;;;8.30;97.20;;;;;;1687927;29;20260;-73
2022/04/17 06:07:55;;;;;;;4.65;4.13;;;8.30;97.20;;;;;;1687748;29;20669;-73
2022/04/17 06:08:46;;;;;;;4.60;4.20;;;8.30;97.20;;;;;;1687416;29;20372;-73
2022/04/17 06:09:38;;;;;;;4.32;3.92;;;8.30;97.20;;;;;;1687654;29;20608;-73
2022/04/17 06:10:31;;;;;;;4.30;3.90;;;8.40;97.20;;;;;;1687702;29;20239;-74
2022/04/17 06:11:22;;;;;;;4.32;3.92;;;8.40;97.20;;;;;;1687847;29;20248;-74
2022/04/17 06:12:13;;;;;;;4.18;3.83;;;8.40;97.20;;;;;;1687815;29;20571;-74
2022/04/17 06:13:05;;;;;;;4.17;3.20;;;8.40;97.20;;;;;;1687531;29;20258;-73
2022/04/17 06:13:56;;;;;;;4.00;3.70;;;8.40;97.20;;;;;;1687740;29;20494;-74
2022/04/17 06:14:48;;;;;;;3.83;3.53;;;8.40;97.20;;;;;;1687751;29;20208;-73
2022/04/17 06:15:40;;;;;;;4.22;3.83;;;8.50;97.20;;;;;;1687511;29;20242;-73
2022/04/17 06:16:33;;;;;;;3.90;3.60;;;8.50;97.20;;;;;;1687571;29;20216;-73
2022/04/17 06:17:23;;;;;;;3.97;3.55;;;8.50;97.20;;;;;;1684838;29;20292;-73
2022/04/17 06:18:16;;;;;;;4.33;3.93;;;8.50;97.20;;;;;;1687336;29;20204;-73
2022/04/17 06:19:09;;;;;;;3.92;3.60;;;8.50;97.20;;;;;;1687672;29;20695;-72
2022/04/17 06:20:06;;;;;;;4.10;3.72;;;8.60;97.20;;;;;;1687689;29;20711;-73
2022/04/17 06:20:58;;;;;;;3.97;3.20;;;8.60;97.20;;;;;;1687685;29;20549;-73
2022/04/17 06:21:49;;;;;;;3.90;3.60;;;8.60;97.20;;;;;;1687602;29;20290;-73
2022/04/17 06:22:41;;;;;;;4.03;3.70;;;8.60;97.20;;;;;;1687617;29;20220;-73
2022/04/17 06:23:32;;;;;;;3.95;3.60;;;8.60;97.20;;;;;;1687695;29;20262;-73
2022/04/17 06:24:23;;;;;;;3.93;3.53;;;8.60;97.20;;;;;;1687663;29;20205;-73
2022/04/17 06:25:14;;;;;;;4.97;3.70;;;8.60;97.20;;;;;;1687206;29;20209;-73
2022/04/17 06:26:09;;;;;;;3.60;3.10;;;8.70;97.20;;;;;;1687687;29;20208;-73
2022/04/17 06:26:59;;;;;;;3.55;3.25;;;8.70;97.20;;;;;;1687689;29;20209;-72
2022/04/17 06:27:51;;;;;;;3.63;3.33;;;8.70;97.20;;;;;;1687620;29;20204;-72
2022/04/17 06:28:42;;;;;;;4.68;3.28;;;8.70;97.20;;;;;;1687274;29;20209;-73
2022/04/17 06:29:34;;;;;;;3.63;3.33;;;8.80;97.20;;;;;;1687595;29;20208;-73
2022/04/17 06:30:26;;;;;;;4.55;3.45;;;8.80;97.20;;;;;;1687583;29;20331;-72
2022/04/17 06:31:18;;;;;;;4.53;3.80;;;8.80;97.20;;;;;;1687688;29;20573;-73
2022/04/17 06:32:08;;;;;;;4.13;3.70;;;8.80;97.20;;;;;;1687650;29;20204;-73
2022/04/17 06:33:00;;;;;;;3.73;3.37;;;8.80;97.20;;;;;;1687566;29;20231;-72
2022/04/17 06:33:52;;;;;;;3.95;3.45;;;8.90;97.20;;;;;;1687630;29;20204;-75
2022/04/17 06:34:44;;;;;;;3.42;3.13;;;8.90;97.20;;;;;;1687638;29;20209;-74
2022/04/17 06:35:35;;;;;;;3.40;3.10;;;8.90;97.20;;;;;;1687308;29;20702;-74
2022/04/17 06:36:26;;;;;;;3.77;3.37;;;8.90;97.20;;;;;;1687726;29;20676;-73
2022/04/17 06:37:17;;;;;;;3.60;3.30;;;9.00;97.20;;;;;;1687943;29;20576;-73
2022/04/17 06:38:10;;;;;;;3.77;3.47;;;9.00;97.20;;;;;;1688669;29;20196;-73
2022/04/17 06:39:01;;;;;;;3.75;3.45;;;9.00;97.20;;;;;;1689190;29;20208;-74
2022/04/17 06:39:53;;;;;;;4.43;3.43;;;9.00;97.20;;;;;;1688820;29;20236;-74
2022/04/17 06:40:43;;;;;;;3.50;3.20;;;9.10;97.20;;;;;;1689037;29;20243;-74
2022/04/17 06:41:35;;;;;;;7.80;3.30;;;9.10;97.20;;;;;;1688876;29;20234;-73
2022/04/17 06:42:26;;;;;;;3.22;2.92;;;9.20;97.20;;;;;;1688955;29;20246;-74
2022/04/17 06:43:18;;;;;;;4.17;3.80;;;9.20;97.20;;;;;;1688574;29;20716;-73
2022/04/17 06:44:11;;;;;;;3.95;3.60;;;9.30;97.20;;;;;;1689020;29;20213;-74
2022/04/17 06:45:03;;;;;;;4.07;3.67;;;9.30;97.20;;;;;;1689027;29;20552;-74
2022/04/17 06:45:54;;;;;;;3.85;3.28;;;9.30;97.20;;;;;;1689087;29;20216;-74
2022/04/17 06:46:46;;;;;;;4.10;3.60;;;9.30;97.20;;;;;;1689027;29;20212;-74
2022/04/17 06:47:36;;;;;;;3.50;3.25;;;9.40;97.20;;;;;;1688967;29;20215;-73
2022/04/17 06:48:28;;;;;;;6.17;3.27;;;9.40;97.20;;;;;;1688636;29;20698;-75
2022/04/17 06:49:20;;;;;;;3.25;3.00;;;9.50;97.20;;;;;;1688893;29;20479;-74
2022/04/17 06:50:13;;;;;;;4.05;3.65;;;9.50;97.20;;;;;;1688969;29;20573;-74
2022/04/17 06:51:04;;;;;;;3.53;3.20;;;9.50;97.20;;;;;;1689022;29;20715;-75
2022/04/17 06:51:55;;;;;;;3.37;3.07;;;9.60;97.20;;;;;;1688915;29;20656;-73
2022/04/17 06:52:46;;;;;;;3.78;3.30;;;9.60;97.20;;;;;;1688839;29;20253;-74
2022/04/17 06:53:38;;;;;;;3.77;3.47;;;9.60;97.10;;;;;;1688617;29;20200;-74
2022/04/17 06:54:28;;;;;;;3.88;3.58;;;9.70;97.10;;;;;;1688940;29;20448;-74
2022/04/17 06:55:20;;;;;;;3.87;3.43;;;9.70;97.20;;;;;;1688643;29;20679;-74
2022/04/17 06:56:12;;;;;;;2.92;2.70;;;9.70;97.20;;;;;;1688622;29;20239;-75
2022/04/17 06:57:04;;;;;;;3.47;3.20;;;9.80;97.00;;;;;;1688792;29;20200;-75
2022/04/17 06:57:55;;;;;;;3.80;3.28;;;9.80;96.70;;;;;;1688797;29;20208;-74
2022/04/17 06:58:47;;;;;;;3.20;3.00;;;9.80;96.30;;;;;;1688566;29;20208;-74
2022/04/17 06:59:39;;;;;;;3.42;3.13;;;9.90;96.30;;;;;;1688848;29;20671;-77
2022/04/17 07:00:31;;;;;;;3.40;3.10;;;9.90;96.30;;;;;;1688682;29;20307;-76
2022/04/17 07:01:23;;;;;;;3.80;3.47;;;9.90;96.00;;;;;;1688832;29;20208;-74
2022/04/17 07:02:14;;;;;;;4.30;3.83;;;9.90;95.60;;;;;;1688861;29;20209;-74
2022/04/17 07:03:05;;;;;;;3.60;3.30;;;10.00;95.50;;;;;;1688925;29;20224;-74
2022/04/17 07:03:57;;;;;;;4.30;3.90;;;10.00;95.30;;;;;;1688942;29;20236;-74
2022/04/17 07:04:49;;;;;;;3.72;3.40;;;10.00;95.30;;;;;;1688875;29;20448;-74
2022/04/17 07:05:41;;;;;;;3.10;2.80;;;10.00;95.70;;;;;;1688905;29;20220;-74
2022/04/17 07:06:32;;;;;;;2.90;2.60;;;10.10;96.10;;;;;;1688891;29;20698;-74
2022/04/17 07:07:24;;;;;;;4.67;3.27;;;10.10;96.30;;;;;;1688833;29;20660;-74
2022/04/17 07:08:14;;;;;;;3.20;2.95;;;10.10;95.90;;;;;;1688498;29;20731;-75
2022/04/17 07:09:06;;;;;;;4.37;3.10;;;10.20;95.60;;;;;;1688880;29;20997;-73
2022/04/17 07:09:57;;;;;;;3.33;3.05;;;10.20;95.40;;;;;;1688844;29;20627;-75
2022/04/17 07:10:49;;;;;;;3.57;3.27;;;10.30;94.80;;;;;;1688609;29;20614;-74
2022/04/17 07:11:39;;;;;;;3.80;2.88;;;10.30;94.80;;;;;;1688756;29;20204;-73
2022/04/17 07:12:31;;;;;;;3.20;2.90;;;10.30;94.90;;;;;;1688868;29;20283;-73
2022/04/17 07:13:23;;;;;;;3.03;2.70;;;10.30;94.80;;;;;;1688730;29;20227;-74
2022/04/17 07:14:15;;;;;;;4.10;2.80;;;10.40;95.00;;;;;;1689176;29;20200;-75
2022/04/17 07:15:07;;;;;;;3.50;3.20;;;10.40;94.60;;;;;;1688776;29;20225;-74
2022/04/17 07:15:59;;;;;;;3.45;2.70;;;10.40;94.30;;;;;;1688799;29;20288;-75
2022/04/17 07:16:49;;;;;;;5.60;2.95;;;10.40;95.20;;;;;;1688842;29;20208;-74
2022/04/17 07:17:42;;;;;;;3.33;3.03;;;10.40;95.90;;;;;;1688799;29;20219;-74
2022/04/17 07:18:33;;;;;;;3.67;3.05;;;10.50;97.20;;;;;;1688396;29;20512;-74
2022/04/17 07:19:25;;;;;;;5.35;3.55;;;10.60;97.20;;;;;;1688840;29;20268;-74
2022/04/17 07:20:17;;;;;;;4.90;2.97;;;10.60;97.20;;;;;;1688689;29;20219;-74
2022/04/17 07:21:09;;;;;;;5.20;3.08;;;10.70;97.20;;;;;;1682270;29;20209;-74
2022/04/17 07:22:00;;;;;;;4.65;3.15;;;10.80;97.20;;;;;;1682236;29;20257;-74
2022/04/17 07:22:52;;;;;;;3.67;2.90;;;10.90;97.20;;;;;;1682080;29;20229;-74
2022/04/17 07:23:45;;;;;;;3.95;3.15;;;10.90;96.90;;;;;;1684540;29;20461;-74
2022/04/17 07:24:39;;;;;;;3.33;3.03;;;11.00;96.40;;;;;;1688347;29;20201;-73
2022/04/17 07:25:30;;;;;;;3.63;2.70;;;11.00;96.10;;;;;;1688617;29;20208;-74
2022/04/17 07:26:21;;;;;;;3.23;2.93;;;11.10;94.90;;;;;;1688715;29;20204;-73
2022/04/17 07:27:16;;;;;;;2.95;2.67;;;11.10;94.00;;;;;;1688629;29;20232;-74
2022/04/17 07:28:13;;;;;;;3.45;3.10;;;11.10;93.40;;;;;;1688343;29;20200;-73
2022/04/17 07:29:03;;;;;;;3.15;2.83;;;11.20;93.30;;;;;;1688438;29;20304;-75
2022/04/17 07:29:55;;;;;;;3.30;3.00;;;11.20;93.00;;;;;;1688939;29;20237;-75
2022/04/17 07:30:46;;;;;;;3.25;2.95;;;11.20;92.90;;;;;;1688753;29;20616;-74
2022/04/17 07:31:38;;;;;;;2.80;2.60;;;11.20;92.50;;;;;;1688760;29;20569;-75
2022/04/17 07:32:30;;;;;;;3.70;3.28;;;11.20;92.60;;;;;;1688787;29;20448;-75
2022/04/17 07:33:22;;;;;;;3.03;2.70;;;11.20;92.60;;;;;;1688874;29;20204;-75
2022/04/17 07:34:13;;;;;;;4.75;3.28;;;11.20;92.30;;;;;;1688617;29;20213;-75
2022/04/17 07:35:06;;;;;;;2.40;2.20;;;11.30;92.20;;;;;;1688630;29;20224;-75
2022/04/17 07:35:58;;;;;;;3.33;3.03;;;11.30;92.20;;;;;;1688252;29;20457;-75
2022/04/17 07:36:52;;;;;;;3.03;2.72;;;11.30;92.30;;;;;;1688167;29;20196;-75
2022/04/17 07:37:48;;;;;;;3.45;3.15;;;11.30;91.90;;;;;;1688875;29;20299;-75
2022/04/17 07:38:39;;;;;;;3.15;2.70;;;11.40;91.80;;;;;;1688450;29;20209;-75
2022/04/17 07:39:31;;;;;;;2.83;2.50;;;11.40;91.40;;;;;;1688624;29;20216;-74
2022/04/17 07:40:25;;;;;;;3.03;2.60;;;11.40;91.50;;;;;;1688249;29;20484;-75
2022/04/17 07:41:16;;;;;;;3.22;2.92;;;11.40;91.60;;;;;;1689675;29;20204;-74
2022/04/17 07:42:07;;;;;;;2.95;2.75;;;11.50;91.40;;;;;;1688499;29;20224;-75
2022/04/17 07:43:00;;;;;;;3.17;2.63;;;11.50;91.40;;;;;;1688778;29;20220;-74
2022/04/17 07:43:51;;;;;;;3.15;2.85;;;11.60;90.90;;;;;;1688812;29;20271;-72
2022/04/17 07:44:43;;;;;;;2.97;2.60;;;11.60;90.60;;;;;;1688771;29;20207;-74
2022/04/17 07:45:34;;;;;;;2.55;2.35;;;11.60;90.70;;;;;;1688796;29;20215;-74
2022/04/17 07:46:26;;;;;;;2.88;2.67;;;11.70;90.70;;;;;;1688247;29;20557;-72
2022/04/17 07:47:17;;;;;;;2.85;2.63;;;11.70;90.70;;;;;;1688430;29;20212;-74
2022/04/17 07:48:08;;;;;;;3.00;2.70;;;11.70;90.70;;;;;;1687831;29;20719;-74
2022/04/17 07:48:59;;;;;;;3.05;2.50;;;11.80;90.40;;;;;;1688766;29;20944;-74
2022/04/17 07:49:51;;;;;;;3.30;3.00;;;11.80;90.40;;;;;;1688414;29;20196;-76
2022/04/17 07:50:43;;;;;;;2.85;2.55;;;11.80;90.20;;;;;;1688838;29;20551;-74
2022/04/17 07:51:35;;;;;;;5.47;3.20;;;11.80;89.90;;;;;;1688551;29;20329;-74
2022/04/17 07:52:27;;;;;;;3.25;2.72;;;11.90;90.20;;;;;;1687960;29;20201;-74
2022/04/17 07:53:18;;;;;;;2.85;2.42;;;11.90;90.20;;;;;;1688841;29;20228;-73
2022/04/17 07:54:09;;;;;;;3.20;2.80;;;12.00;90.20;;;;;;1688505;29;20204;-74
2022/04/17 07:55:01;;;;;;;3.88;3.00;;;12.00;89.30;;;;;;1688443;29;20693;-74
2022/04/17 07:55:52;;;;;;;3.20;2.95;;;11.90;88.90;;;;;;1688026;29;20193;-74
2022/04/17 07:56:43;;;;;;;3.70;3.40;;;11.90;89.10;;;;;;1688721;29;20685;-74
2022/04/17 07:57:55;;;;;;;3.25;2.95;;;12.00;89.30;;;;;;1688298;29;20204;-75
2022/04/17 07:58:46;;;;;;;3.58;3.28;;;12.00;89.20;;;;;;1687932;29;20216;-74
2022/04/17 07:59:37;;;;;;;5.32;2.60;;;12.00;89.60;;;;;;1688109;29;20208;-75
2022/04/17 08:00:32;;;;;;;3.23;2.83;;;12.10;90.20;;;;;;1665054;29;20669;-74
2022/04/17 08:01:22;;;;;;;3.10;2.80;;;12.10;90.60;;;;;;1699029;29;20228;-74
2022/04/17 08:02:22;;;;;;;2.73;2.53;;;12.20;90.70;;;;;;1699651;29;20248;-74
2022/04/17 08:03:24;;;;;;;5.43;2.72;;;12.30;90.60;;;;;;1688109;29;20476;-74
2022/04/17 08:04:15;;;;;;;2.47;2.28;;;12.40;90.50;;;;;;1686836;29;20763;-74
2022/04/17 08:05:07;;;;;;;3.13;2.88;;;12.50;90.70;;;;;;1688275;29;20265;-75
2022/04/17 08:05:59;;;;;;;3.30;3.00;;;12.50;89.80;;;;;;1688043;29;20279;-74
2022/04/17 08:06:51;;;;;;;3.20;2.67;;;12.60;89.40;;;;;;1688073;29;20208;-74
2022/04/17 08:07:43;;;;;;;2.80;2.60;;;12.60;89.50;;;;;;1688401;29;20299;-74
2022/04/17 08:08:35;;;;;;;3.10;2.90;;;12.70;89.20;;;;;;1687943;29;20634;-74
2022/04/17 08:09:26;;;;;;;6.03;3.55;;;12.70;89.20;;;;;;1688143;29;20209;-74
2022/04/17 08:10:19;;;;;;;4.32;3.03;;;12.70;88.80;;;;;;1688254;29;20616;-75
2022/04/17 08:11:11;;;;;;;2.95;2.75;;;12.80;88.40;;;;;;1688386;29;20228;-74
2022/04/17 08:12:03;;;;;;;3.60;3.30;;;12.80;88.60;;;;;;1687996;29;22012;-74
2022/04/17 08:12:54;;;;;;;3.25;2.95;;;12.90;88.20;;;;;;1688243;29;20263;-74
2022/04/17 08:13:46;;;;;;;2.70;2.50;;;12.90;88.40;;;;;;1688435;29;20211;-75
2022/04/17 08:14:37;;;;;;;3.33;3.03;;;13.00;88.70;;;;;;1688476;29;20213;-75
2022/04/17 08:15:29;;;;;;;3.10;2.70;;;13.00;88.60;;;;;;1688820;29;20272;-74
2022/04/17 08:16:20;;;;;;;3.15;2.75;;;13.10;88.60;;;;;;1689293;29;20205;-74
2022/04/17 08:17:11;;;;;;;4.03;2.53;;;13.10;88.10;;;;;;1689537;29;20223;-74
2022/04/17 08:18:02;;;;;;;3.20;2.90;;;13.20;88.10;;;;;;1688251;29;20460;-75
2022/04/17 08:18:54;;;;;;;3.13;2.93;;;13.20;88.30;;;;;;1688807;29;20219;-75
2022/04/17 08:19:44;;;;;;;3.38;2.65;;;13.30;87.90;;;;;;1688718;29;20207;-75
2022/04/17 08:20:36;;;;;;;4.17;2.97;;;13.30;87.90;;;;;;1688872;29;20665;-74
2022/04/17 08:21:27;;;;;;;4.40;3.20;;;13.30;87.80;;;;;;1688845;29;20216;-74
2022/04/17 08:22:20;;;;;;;3.53;2.73;;;13.40;87.80;;;;;;1688797;29;20232;-74
2022/04/17 08:23:11;;;;;;;4.60;3.25;;;13.40;87.90;;;;;;1688655;29;20236;-74
2022/04/17 08:24:02;;;;;;;3.10;2.80;;;13.50;87.60;;;;;;1688558;29;20203;-75
2022/04/17 08:24:53;;;;;;;2.75;2.45;;;13.50;87.40;;;;;;1688627;29;20231;-75
2022/04/17 08:25:46;;;;;;;3.50;3.20;;;13.50;87.30;;;;;;1688643;29;20204;-75
2022/04/17 08:26:37;;;;;;;3.40;3.05;;;13.60;87.20;;;;;;1688294;29;20211;-75
2022/04/17 08:27:29;;;;;;;3.50;3.20;;;13.70;87.20;;;;;;1688602;29;20243;-74
2022/04/17 08:28:19;;;;;;;3.10;2.83;;;13.70;87.50;;;;;;1688379;29;20225;-74
2022/04/17 08:29:11;;;;;;;3.43;3.13;;;13.80;87.70;;;;;;1688368;29;20213;-75
2022/04/17 08:30:02;;;;;;;3.40;3.10;;;13.90;88.10;;;;;;1688651;29;20204;-74
2022/04/17 08:30:55;;;;;;;3.00;2.80;;;14.00;88.10;;;;;;1688435;29;20214;-74
2022/04/17 08:31:45;;;;;;;2.90;2.70;;;14.00;87.50;;;;;;1688472;29;20491;-75
2022/04/17 08:32:37;;;;;;;2.80;2.60;;;14.10;87.20;;;;;;1689257;29;20266;-74
2022/04/17 08:33:28;;;;;;;3.67;3.20;;;14.20;87.30;;;;;;1688717;29;20576;-75
2022/04/17 08:34:19;;;;;;;2.87;2.67;;;14.20;86.90;;;;;;1688839;29;20201;-74
2022/04/17 08:35:10;;;;;;;3.70;3.00;;;14.30;86.80;;;;;;1688981;29;20460;-75
2022/04/17 08:36:03;;;;;;;3.90;3.57;;;14.40;87.10;;;;;;1688786;29;20193;-74
2022/04/17 08:36:55;;;;;;;3.47;3.13;;;14.40;87.60;;;;;;1688053;29;20578;-75
2022/04/17 08:37:47;;;;;;;3.50;3.08;;;14.50;87.60;;;;;;1688747;29;20248;-75
2022/04/17 08:38:42;;;;;;;2.97;2.78;;;14.60;87.10;;;;;;1688441;29;20208;-74
2022/04/17 08:39:33;;;;;;;4.97;2.78;;;14.60;86.30;;;;;;1688469;29;20581;-74
2022/04/17 08:40:26;;;;;;;3.03;2.70;;;14.70;86.40;;;;;;1688552;29;20577;-75
2022/04/17 08:41:19;;;;;;;3.47;3.17;;;14.80;85.30;;;;;;1688322;29;20216;-74
2022/04/17 08:42:12;;;;;;;2.92;2.72;;;14.80;85.00;;;;;;1688465;29;20231;-75
2022/04/17 08:43:05;;;;;;;3.05;2.55;;;14.90;84.50;;;;;;1688889;29;20712;-74
2022/04/17 08:43:57;;;;;;;5.65;2.67;;;14.90;84.20;;;;;;1688527;29;20224;-74
2022/04/17 08:44:51;;;;;;;3.38;3.08;;;15.00;84.20;;;;;;1688505;29;20217;-74
2022/04/17 08:45:42;;;;;;;3.00;2.80;;;15.00;84.10;;;;;;1688208;29;20208;-75
2022/04/17 08:46:33;;;;;;;2.60;2.40;;;15.00;83.20;;;;;;1688231;29;20208;-74
2022/04/17 08:47:25;;;;;;;3.27;2.47;;;15.10;82.60;;;;;;1688452;29;20199;-74
2022/04/17 08:48:16;;;;;;;4.43;3.00;;;15.10;82.50;;;;;;1688055;29;20213;-75
2022/04/17 08:49:11;;;;;;;2.90;2.65;;;15.10;82.00;;;;;;1688152;29;20221;-75
2022/04/17 08:50:02;;;;;;;3.90;2.50;;;15.10;82.10;;;;;;1688212;29;20205;-75
2022/04/17 08:50:55;;;;;;;2.50;2.30;;;15.20;81.90;;;;;;1688206;29;20256;-75
2022/04/17 08:51:48;;;;;;;2.40;2.20;;;15.20;81.20;;;;;;1688229;29;20277;-75
2022/04/17 08:52:41;;;;;;;2.90;2.40;;;15.30;81.40;;;;;;1688179;29;20291;-74
2022/04/17 08:53:36;;;;;;;2.45;2.25;;;15.30;81.40;;;;;;1688275;29;20212;-75
2022/04/17 08:54:28;;;;;;;2.63;2.40;;;15.30;81.30;;;;;;1688174;29;20209;-75
2022/04/17 08:55:20;;;;;;;4.63;2.55;;;15.40;80.80;;;;;;1687805;29;20578;-75
2022/04/17 08:56:12;;;;;;;2.50;2.30;;;15.40;79.90;;;;;;1688162;29;20205;-75
2022/04/17 08:57:04;;;;;;;4.22;2.50;;;15.40;79.90;;;;;;1688233;29;20295;-75
2022/04/17 08:57:55;;;;;;;2.97;2.30;;;15.50;80.00;;;;;;1688239;29;20732;-74
2022/04/17 08:58:46;;;;;;;3.10;2.10;;;15.50;79.90;;;;;;1688024;29;20216;-75
2022/04/17 08:59:38;;;;;;;2.87;2.37;;;15.60;80.50;;;;;;1688117;29;20232;-75
2022/04/17 09:00:29;;;;;;;2.55;2.35;;;15.60;80.60;;;;;;1687994;29;20208;-74
2022/04/17 09:01:21;;;;;;;3.92;3.45;;;15.60;80.20;;;;;;1688615;29;20814;-75
2022/04/17 09:02:13;;;;;;;3.60;3.00;;;15.70;80.60;;;;;;1688326;29;20240;-75
2022/04/17 09:03:08;;;;;;;4.55;3.13;;;15.70;80.40;;;;;;1688482;29;20221;-74
2022/04/17 09:04:00;;;;;;;3.78;3.42;;;15.80;80.80;;;;;;1688397;29;20259;-75
2022/04/17 09:04:50;;;;;;;3.50;3.20;;;15.90;81.20;;;;;;1688263;29;20216;-76
2022/04/17 09:05:42;;;;;;;4.20;3.80;;;15.90;81.60;;;;;;1688163;29;20205;-75
2022/04/17 09:06:35;;;;;;;2.30;2.10;;;16.00;81.60;;;;;;1688193;29;20665;-76
2022/04/17 09:07:39;;;;;;;4.22;2.55;;;16.10;80.30;;;;;;1688499;29;20692;-75
2022/04/17 09:08:31;;;;;;;2.72;2.15;;;16.10;79.10;;;;;;1687866;29;20236;-74
2022/04/17 09:09:23;;;;;;;2.97;2.67;;;16.00;79.00;;;;;;1688079;29;20200;-75
2022/04/17 09:10:25;;;;;;;3.70;2.90;;;16.00;79.30;;;;;;1688248;29;20209;-75
2022/04/17 09:11:25;;;;;;;3.38;3.08;;;16.10;79.50;;;;;;1688232;29;20207;-75
2022/04/17 09:12:19;;;;;;;2.88;2.10;;;16.10;79.10;;;;;;1688343;29;20656;-75
2022/04/17 09:13:09;;;;;;;4.13;3.72;;;16.10;78.80;;;;;;1688064;29;20240;-74
2022/04/17 09:14:03;;;;;;;3.47;3.17;;;16.10;79.00;;;;;;1688283;29;20204;-74
2022/04/17 09:14:55;;;;;;;4.55;4.25;;;16.20;78.70;;;;;;1688694;29;20476;-75
2022/04/17 09:15:48;;;;;;;3.63;3.05;;;16.20;78.70;;;;;;1688121;29;20192;-75
2022/04/17 09:16:39;;;;;;;3.00;2.75;;;16.30;78.90;;;;;;1688350;29;20251;-74
2022/04/17 09:17:31;;;;;;;2.30;2.10;;;16.40;78.60;;;;;;1691538;29;20220;-75
2022/04/17 09:18:22;;;;;;;2.65;2.45;;;16.60;78.00;;;;;;1688036;29;20239;-74
2022/04/17 09:19:15;;;;;;;3.45;2.35;;;16.70;78.10;;;;;;1688347;29;20205;-75
2022/04/17 09:20:17;;;;;;;4.88;2.30;;;16.80;78.00;;;;;;1688657;29;20208;-74
2022/04/17 09:21:08;;;;;;;3.17;2.25;;;17.00;77.80;;;;;;1688322;29;20208;-74
2022/04/17 09:22:01;;;;;;;2.83;2.42;;;17.20;77.50;;;;;;1688176;29;20247;-75
2022/04/17 09:22:54;;;;;;;5.07;2.28;;;17.30;77.60;;;;;;1687854;29;20618;-75
2022/04/17 09:23:45;;;;;;;6.45;2.60;;;17.50;77.50;;;;;;1688009;29;20364;-75
2022/04/17 09:24:39;;;;;;;4.70;2.60;;;17.60;77.10;;;;;;1687953;29;20213;-75
2022/04/17 09:25:30;;;;;;;3.95;2.13;;;17.70;76.60;;;;;;1687826;29;20235;-75
2022/04/17 09:26:25;;;;;;;3.30;2.40;;;17.80;76.60;;;;;;1688233;29;20209;-76
2022/04/17 09:27:16;;;;;;;2.38;2.17;;;17.90;76.20;;;;;;1688238;29;20653;-75
2022/04/17 09:28:09;;;;;;;4.55;4.07;;;18.00;76.30;;;;;;1688127;29;20215;-75
2022/04/17 09:28:59;;;;;;;2.22;2.03;;;18.10;76.20;;;;;;1688556;29;20207;-76
2022/04/17 09:29:51;;;;;;;2.63;2.03;;;18.10;75.90;;;;;;1688187;29;20215;-75
2022/04/17 09:30:43;;;;;;;2.40;2.20;;;18.20;75.80;;;;;;1688097;29;20244;-75
2022/04/17 09:31:34;;;;;;;2.40;2.20;;;18.30;75.20;;;;;;1688235;29;20211;-76
2022/04/17 09:32:28;;;;;;;2.60;2.40;;;18.20;74.20;;;;;;1688077;29;20707;-76